Time;durP1;ratioP1;P1;durP2;ratioP2;P2;SDS_P1;SDS_P2;PMS_P1;PMS_P2;Temp;Humidity;BMP_temperature;BMP_pressure;BME280_temperature;BME280_humidity;BME280_pressure;Samples;Min_cycle;Max_cycle;Signal;HPM_P1;HPM_P2
2021/11/03 00:00:05;;;;;;;2.20;2.10;;;;;;;6.74;92.12;98785.84;10500794;28;20079;-75
2021/11/03 00:05:08;;;;;;;2.35;2.15;;;;;;;6.72;92.48;98791.09;10501232;28;20036;-75
2021/11/03 00:10:14;;;;;;;2.10;1.92;;;;;;;6.80;92.17;98796.91;10498983;28;20044;-76
2021/11/03 00:15:16;;;;;;;1.98;1.83;;;;;;;6.89;90.92;98798.34;10498369;28;20044;-77
2021/11/03 00:20:18;;;;;;;2.17;1.98;;;;;;;6.79;91.20;98796.97;10500372;28;20040;-75
2021/11/03 00:25:19;;;;;;;2.47;1.95;;;;;;;6.73;91.81;98791.94;10500468;28;20391;-76
2021/11/03 00:30:22;;;;;;;1.70;1.60;;;;;;;6.68;92.16;98783.44;10499496;28;20051;-76
2021/11/03 00:35:23;;;;;;;2.10;1.90;;;;;;;6.67;92.14;98789.56;10481414;28;20052;-77
2021/11/03 00:40:25;;;;;;;2.22;2.00;;;;;;;6.65;91.51;98780.97;10481895;28;20040;-77
2021/11/03 00:45:27;;;;;;;4.30;1.80;;;;;;;6.44;91.40;98769.50;10481797;28;20064;-77
2021/11/03 00:50:29;;;;;;;2.90;2.30;;;;;;;6.30;91.75;98764.78;10499237;28;20051;-77
2021/11/03 00:55:31;;;;;;;2.20;2.00;;;;;;;6.20;92.00;98763.41;10499296;28;20052;-76
2021/11/03 01:00:34;;;;;;;2.00;1.80;;;;;;;6.14;92.28;98767.03;10480766;28;20045;-77
2021/11/03 01:05:38;;;;;;;2.22;1.88;;;;;;;5.95;91.98;98773.78;10497290;28;20049;-77
2021/11/03 01:10:44;;;;;;;1.65;1.30;;;;;;;5.78;93.11;98764.72;10480618;28;20098;-77
2021/11/03 01:15:47;;;;;;;2.67;1.58;;;;;;;5.68;93.37;98773.75;10498549;28;20045;-76
2021/11/03 01:20:48;;;;;;;1.45;1.33;;;;;;;5.62;92.73;98786.13;10498509;28;20056;-76
2021/11/03 01:25:51;;;;;;;1.55;1.40;;;;;;;5.52;93.09;98796.84;10485460;28;20074;-77
2021/11/03 01:30:53;;;;;;;1.45;1.10;;;;;;;5.71;92.25;98783.22;10506013;28;20053;-77
2021/11/03 01:35:55;;;;;;;1.20;1.10;;;;;;;5.56;91.75;98774.16;10505254;28;20498;-76
2021/11/03 01:40:57;;;;;;;1.83;1.42;;;;;;;5.44;92.87;98767.53;10489057;28;20050;-77
2021/11/03 01:46:22;;;;;;;1.50;1.40;;;;;;;5.35;92.93;98782.63;10488977;28;20070;-76
2021/11/03 01:51:40;;;;;;;2.03;1.40;;;;;;;5.18;93.41;98794.44;10489732;28;20074;-76
2021/11/03 01:56:43;;;;;;;1.30;1.20;;;;;;;5.07;94.27;98812.97;10505246;28;20079;-76
2021/11/03 02:01:45;;;;;;;1.83;1.63;;;;;;;5.02;94.46;98814.84;10504362;28;20050;-76
2021/11/03 02:06:48;;;;;;;2.03;1.63;;;;;;;5.12;94.74;98810.22;10506197;28;20037;-77
2021/11/03 02:11:51;;;;;;;2.08;1.45;;;;;;;5.20;94.36;98812.59;10503901;28;20056;-77
2021/11/03 02:16:53;;;;;;;1.50;1.40;;;;;;;5.17;94.22;98808.31;10503428;28;20051;-76
2021/11/03 02:22:01;;;;;;;1.50;1.40;;;;;;;5.08;93.99;98811.19;10504690;28;20051;-77
2021/11/03 02:27:03;;;;;;;1.50;1.40;;;;;;;5.07;93.45;98786.91;10486635;28;20044;-77
2021/11/03 02:32:17;;;;;;;2.42;1.35;;;;;;;5.03;93.19;98785.28;10486405;28;20122;-76
2021/11/03 02:37:28;;;;;;;1.85;1.60;;;;;;;5.04;92.07;98780.94;10485083;28;20071;-76
2021/11/03 02:42:39;;;;;;;2.20;1.33;;;;;;;5.06;91.85;98771.34;10502496;28;20135;-76
2021/11/03 02:47:42;;;;;;;2.63;1.70;;;;;;;4.99;91.23;98781.06;10503279;28;20045;-76
2021/11/03 02:52:44;;;;;;;1.70;1.60;;;;;;;4.76;92.33;98778.28;10502961;28;20040;-77
2021/11/03 02:57:46;;;;;;;2.50;2.25;;;;;;;4.52;93.79;98777.22;10501235;28;20383;-76
2021/11/03 03:02:48;;;;;;;2.33;2.00;;;;;;;4.43;93.26;98783.53;10503114;28;20051;-76
2021/11/03 03:07:50;;;;;;;1.90;1.80;;;;;;;4.30;94.39;98783.00;10502656;28;20042;-76
2021/11/03 03:12:53;;;;;;;1.88;1.75;;;;;;;4.35;93.73;98777.69;10485354;28;20044;-76
2021/11/03 03:17:55;;;;;;;2.10;2.00;;;;;;;4.68;91.04;98786.28;10502304;28;20032;-76
2021/11/03 03:22:59;;;;;;;2.40;2.20;;;;;;;4.38;92.84;98780.19;10484200;28;20045;-76
2021/11/03 03:28:01;;;;;;;2.67;2.47;;;;;;;4.44;92.41;98785.22;10500483;28;20044;-76
2021/11/03 03:33:02;;;;;;;2.63;2.42;;;;;;;4.55;91.56;98787.53;10499566;28;20089;-76
2021/11/03 03:38:04;;;;;;;5.80;1.95;;;;;;;4.35;92.15;98792.44;10499726;28;20054;-75
2021/11/03 03:43:06;;;;;;;2.53;2.33;;;;;;;4.05;93.60;98792.31;10499542;28;20098;-76
2021/11/03 03:48:08;;;;;;;3.33;2.97;;;;;;;4.06;94.02;98812.22;10498493;28;20581;-76
2021/11/03 03:53:10;;;;;;;3.15;2.95;;;;;;;3.85;95.26;98808.44;10482823;28;20056;-76
2021/11/03 03:58:13;;;;;;;3.17;2.90;;;;;;;3.85;96.63;98805.84;10499213;28;20406;-76
2021/11/03 04:03:15;;;;;;;3.20;2.95;;;;;;;3.92;97.22;98802.16;10498657;28;20076;-76
2021/11/03 04:08:19;;;;;;;2.60;2.40;;;;;;;4.00;97.71;98807.19;10498456;28;20044;-76
2021/11/03 04:13:23;;;;;;;3.53;3.28;;;;;;;4.10;98.01;98794.81;10498865;28;20054;-76
2021/11/03 04:18:26;;;;;;;3.55;3.22;;;;;;;4.27;98.49;98808.22;10481610;28;20044;-76
2021/11/03 04:23:28;;;;;;;4.30;3.90;;;;;;;4.36;98.97;98808.00;10497675;28;20044;-76
2021/11/03 04:28:30;;;;;;;4.47;4.15;;;;;;;4.47;99.11;98811.19;10498359;28;20059;-76
2021/11/03 04:33:32;;;;;;;4.93;4.35;;;;;;;4.72;97.74;98820.91;10497394;28;20048;-76
2021/11/03 04:38:34;;;;;;;4.15;3.75;;;;;;;4.70;97.99;98807.09;10498662;28;20047;-77
2021/11/03 04:43:36;;;;;;;3.45;3.15;;;;;;;4.74;98.49;98819.13;10464910;28;20136;-76
2021/11/03 04:48:37;;;;;;;4.03;3.72;;;;;;;4.87;98.29;98819.63;10481372;28;20040;-76
2021/11/03 04:53:39;;;;;;;3.47;3.17;;;;;;;4.92;98.38;98826.44;10480564;28;20044;-76
2021/11/03 04:58:42;;;;;;;2.88;2.67;;;;;;;5.06;98.34;98826.03;10480392;28;20135;-76
2021/11/03 05:03:44;;;;;;;2.63;2.42;;;;;;;5.02;97.61;98816.59;10498729;28;20043;-76
2021/11/03 05:08:46;;;;;;;2.50;2.30;;;;;;;5.03;97.42;98816.53;10497626;28;20041;-76
2021/11/03 05:13:48;;;;;;;2.55;2.35;;;;;;;5.06;97.00;98818.22;10480155;28;20135;-77
2021/11/03 05:18:51;;;;;;;3.10;2.28;;;;;;;5.11;97.02;98833.72;10496846;28;20051;-76
2021/11/03 05:23:54;;;;;;;2.30;2.10;;;;;;;5.19;95.71;98839.56;10497058;28;20518;-72
2021/11/03 05:28:57;;;;;;;2.15;1.60;;;;;;;5.52;94.15;98848.13;10498454;28;20041;-73
2021/11/03 05:33:58;;;;;;;3.67;1.65;;;;;;;5.56;91.77;98849.72;10498538;28;20086;-73
2021/11/03 05:39:05;;;;;;;1.73;1.63;;;;;;;5.31;91.05;98840.06;10497742;28;20090;-72
2021/11/03 05:44:16;;;;;;;1.88;1.77;;;;;;;5.19;90.62;98829.13;10497873;28;20048;-73
2021/11/03 05:49:21;;;;;;;1.50;1.40;;;;;;;5.39;86.80;98820.72;10498863;28;20471;-73
2021/11/03 05:54:26;;;;;;;2.63;2.22;;;;;;;5.29;87.52;98827.97;10497218;28;20040;-73
2021/11/03 05:59:31;;;;;;;2.20;1.98;;;;;;;5.22;87.97;98824.69;10496524;28;20040;-73
2021/11/03 06:04:33;;;;;;;3.70;1.67;;;;;;;5.19;87.44;98823.94;10497022;28;20123;-73
2021/11/03 06:09:34;;;;;;;1.90;1.60;;;;;;;5.12;87.33;98825.84;10499834;28;20432;-73
2021/11/03 06:14:39;;;;;;;3.25;2.20;;;;;;;5.30;87.27;98843.53;10505797;28;20053;-73
2021/11/03 06:19:41;;;;;;;2.53;2.20;;;;;;;5.23;87.46;98859.41;10506795;28;20097;-73
2021/11/03 06:24:43;;;;;;;2.80;1.95;;;;;;;5.00;88.80;98860.94;10505972;28;20490;-72
2021/11/03 06:29:45;;;;;;;2.40;2.20;;;;;;;5.05;87.82;98864.25;10487967;28;20098;-72
2021/11/03 06:34:47;;;;;;;2.60;2.25;;;;;;;4.85;89.29;98870.91;10488515;28;20044;-72
2021/11/03 06:39:49;;;;;;;3.35;3.05;;;;;;;4.80;89.57;98869.28;10503622;28;20045;-73
2021/11/03 06:44:51;;;;;;;3.58;3.10;;;;;;;4.79;89.89;98870.19;10487737;28;20135;-72
2021/11/03 06:49:52;;;;;;;4.75;3.65;;;;;;;4.89;88.68;98880.34;10505920;28;20143;-73
2021/11/03 06:54:54;;;;;;;3.67;3.38;;;;;;;5.36;86.76;98886.84;10504784;28;20048;-72
2021/11/03 06:59:57;;;;;;;6.45;3.33;;;;;;;5.31;86.27;98886.97;10504786;28;20045;-73
2021/11/03 07:04:59;;;;;;;4.30;3.90;;;;;;;5.36;87.14;98898.97;10503533;28;20082;-72
2021/11/03 07:10:02;;;;;;;3.75;3.45;;;;;;;5.42;87.13;98904.03;10487156;28;20048;-72
2021/11/03 07:15:04;;;;;;;4.35;3.67;;;;;;;5.45;87.29;98906.56;10505513;28;20486;-72
2021/11/03 07:20:07;;;;;;;4.20;3.75;;;;;;;5.67;86.96;98901.56;10504119;28;20044;-72
2021/11/03 07:25:12;;;;;;;4.45;4.05;;;;;;;6.10;83.51;98895.88;10505571;28;20105;-72
2021/11/03 07:30:15;;;;;;;7.78;5.32;;;;;;;6.10;84.06;98895.88;10504079;28;20056;-73
2021/11/03 07:35:17;;;;;;;11.25;5.03;;;;;;;6.13;84.88;98893.19;10468306;28;20041;-73
2021/11/03 07:40:27;;;;;;;6.70;4.85;;;;;;;6.47;84.47;98881.66;10485099;28;20064;-73
2021/11/03 07:45:30;;;;;;;8.95;6.75;;;;;;;6.73;81.31;98880.75;10501840;28;20136;-73
2021/11/03 07:50:38;;;;;;;10.10;9.20;;;;;;;6.95;80.92;98886.97;10484067;28;20041;-73
2021/11/03 07:55:45;;;;;;;9.05;8.25;;;;;;;7.11;79.08;98881.16;10502444;28;20048;-73
2021/11/03 08:00:47;;;;;;;9.75;9.05;;;;;;;7.39;77.14;98894.06;10502896;28;20050;-72
2021/11/03 08:05:51;;;;;;;10.50;9.63;;;;;;;7.30;78.50;98890.91;10501409;28;20548;-72
2021/11/03 08:10:53;;;;;;;13.88;9.77;;;;;;;7.34;79.18;98889.88;10501262;28;20044;-73
2021/11/03 08:15:58;;;;;;;11.50;10.45;;;;;;;7.45;79.05;98886.88;10483986;28;20079;-73
2021/11/03 08:21:00;;;;;;;11.68;10.68;;;;;;;7.48;78.98;98892.00;10501207;28;20047;-73
2021/11/03 08:26:02;;;;;;;11.80;10.80;;;;;;;7.87;77.28;98880.03;10500692;28;20047;-73
2021/11/03 08:31:04;;;;;;;12.90;11.90;;;;;;;7.61;79.16;98889.75;10482992;28;20052;-73
2021/11/03 08:36:07;;;;;;;13.25;12.25;;;;;;;7.77;77.74;98888.25;10500127;28;20036;-73
2021/11/03 08:41:27;;;;;;;12.30;11.30;;;;;;;8.04;77.45;98875.00;10503077;28;20123;-72
2021/11/03 08:46:29;;;;;;;11.95;10.88;;;;;;;7.95;76.96;98870.97;10501310;28;20124;-72
2021/11/03 08:51:33;;;;;;;11.30;10.40;;;;;;;7.82;78.20;98877.59;10501123;28;20082;-73
2021/11/03 08:56:38;;;;;;;11.02;10.02;;;;;;;7.96;77.90;98861.38;10502013;28;20455;-73
2021/11/03 09:01:40;;;;;;;24.20;12.25;;;;;;;7.88;79.05;98859.06;10499831;28;20094;-72
2021/11/03 09:06:42;;;;;;;11.82;10.73;;;;;;;8.12;77.60;98872.09;10482773;28;20440;-73
2021/11/03 09:11:49;;;;;;;10.50;9.35;;;;;;;8.54;76.13;98861.63;10483804;28;20048;-72
2021/11/03 09:16:52;;;;;;;10.00;9.20;;;;;;;8.52;75.45;98853.84;10501372;28;20033;-72
2021/11/03 09:21:54;;;;;;;7.97;7.35;;;;;;;8.68;74.28;98845.34;10480989;28;20049;-72
2021/11/03 09:26:55;;;;;;;7.40;6.70;;;;;;;8.87;73.08;98825.28;10499366;28;20363;-72
2021/11/03 09:31:57;;;;;;;9.98;6.30;;;;;;;9.04;72.69;98833.25;10500126;28;20040;-72
2021/11/03 09:37:00;;;;;;;5.85;4.95;;;;;;;8.87;73.07;98834.91;10499452;28;20543;-72
2021/11/03 09:42:11;;;;;;;9.48;5.45;;;;;;;9.05;71.92;98845.44;10499492;28;20052;-72
2021/11/03 09:47:13;;;;;;;5.22;4.72;;;;;;;9.06;71.67;98847.13;10505805;28;20044;-73
2021/11/03 09:52:39;;;;;;;6.30;5.00;;;;;;;9.31;70.60;98843.41;10507298;28;20049;-72
2021/11/03 09:57:42;;;;;;;5.82;4.60;;;;;;;9.31;71.74;98832.91;10506643;28;20044;-72
2021/11/03 10:03:18;;;;;;;5.00;4.65;;;;;;;9.51;70.15;98830.22;10489318;28;20056;-74
2021/11/03 10:08:23;;;;;;;5.05;4.57;;;;;;;9.69;68.84;98830.28;10467358;28;20057;-72
2021/11/03 10:13:35;;;;;;;5.15;4.75;;;;;;;9.57;69.65;98816.81;10488650;28;20470;-71
2021/11/03 10:18:54;;;;;;;5.38;4.95;;;;;;;9.39;70.58;98817.69;10502527;28;20036;-73
2021/11/03 10:24:11;;;;;;;5.72;5.22;;;;;;;9.80;69.41;98826.22;10483835;28;20048;-73
2021/11/03 10:29:12;;;;;;;5.55;5.15;;;;;;;10.28;69.52;98826.56;10500800;28;20048;-73
2021/11/03 10:34:22;;;;;;;5.53;5.13;;;;;;;10.64;67.73;98802.84;10502704;28;20044;-72
2021/11/03 10:39:23;;;;;;;4.68;4.38;;;;;;;11.50;64.57;98801.72;10501680;28;20090;-73
2021/11/03 10:44:28;;;;;;;4.80;4.40;;;;;;;11.48;62.71;98797.50;10501496;28;20044;-73
2021/11/03 10:49:45;;;;;;;4.40;4.00;;;;;;;12.34;60.51;98796.09;10504141;28;20040;-72
2021/11/03 10:54:54;;;;;;;4.55;4.20;;;;;;;12.49;60.30;98802.28;10468108;28;20056;-72
2021/11/03 11:00:07;;;;;;;6.30;4.72;;;;;;;12.90;60.51;98794.50;10503255;28;20041;-72
2021/11/03 11:05:17;;;;;;;4.22;3.92;;;;;;;13.20;58.51;98793.56;10504514;28;20043;-72
2021/11/03 11:10:39;;;;;;;4.75;4.35;;;;;;;14.42;53.16;98796.22;10502771;28;20048;-73
2021/11/03 11:16:03;;;;;;;3.55;3.25;;;;;;;14.59;51.20;98795.13;10502595;28;20047;-72
2021/11/03 11:21:33;;;;;;;3.70;3.20;;;;;;;14.16;52.82;98797.97;10483737;28;20049;-72
2021/11/03 11:26:54;;;;;;;3.28;2.20;;;;;;;13.76;53.74;98782.06;10502065;28;20486;-72
2021/11/03 11:32:13;;;;;;;2.00;1.80;;;;;;;13.22;54.54;98781.13;10484547;28;20056;-74
2021/11/03 11:37:28;;;;;;;2.25;2.00;;;;;;;12.68;55.68;98768.59;10500946;28;20040;-73
2021/11/03 11:42:40;;;;;;;2.05;1.60;;;;;;;12.10;56.00;98757.09;10482336;28;20055;-72
2021/11/03 11:47:53;;;;;;;2.40;1.90;;;;;;;11.71;57.70;98752.31;10482981;28;20564;-72
2021/11/03 11:52:58;;;;;;;2.47;2.28;;;;;;;11.31;58.93;98753.69;10501141;28;20129;-72
2021/11/03 11:58:05;;;;;;;2.65;2.45;;;;;;;11.29;60.59;98742.41;10483717;28;20044;-72
2021/11/03 12:03:07;;;;;;;3.65;2.60;;;;;;;11.24;61.18;98740.00;10500018;28;20489;-72
2021/11/03 12:08:08;;;;;;;3.75;3.15;;;;;;;11.18;62.68;98735.09;10465687;28;20109;-74
2021/11/03 12:13:18;;;;;;;4.07;3.05;;;;;;;10.81;63.02;98723.94;10467014;28;20057;-72
2021/11/03 12:18:41;;;;;;;3.70;3.28;;;;;;;10.58;63.99;98712.03;10482943;28;20047;-72
2021/11/03 12:23:50;;;;;;;3.20;3.00;;;;;;;10.44;64.55;98711.06;10499291;28;20517;-72
2021/11/03 12:29:02;;;;;;;3.55;3.28;;;;;;;10.45;64.83;98715.41;10500687;28;20037;-72
2021/11/03 12:34:03;;;;;;;3.00;2.78;;;;;;;10.46;64.42;98712.69;10499482;28;20047;-72
2021/11/03 12:39:06;;;;;;;3.33;3.03;;;;;;;10.51;63.96;98709.81;10499042;28;20052;-72
2021/11/03 12:44:21;;;;;;;3.45;3.13;;;;;;;10.60;64.05;98694.41;10499374;28;20045;-72
2021/11/03 12:49:25;;;;;;;3.17;2.90;;;;;;;10.68;64.19;98686.13;10499659;28;20051;-72
2021/11/03 12:54:32;;;;;;;2.95;2.60;;;;;;;10.85;63.75;98678.16;10500104;28;20128;-72
2021/11/03 12:59:40;;;;;;;4.18;3.08;;;;;;;10.86;62.64;98676.38;10499689;28;20131;-72
2021/11/03 13:04:56;;;;;;;2.50;2.30;;;;;;;10.70;64.32;98667.63;10498413;28;20431;-73
2021/11/03 13:10:09;;;;;;;3.08;2.30;;;;;;;10.85;63.60;98674.69;10498513;28;20044;-72
2021/11/03 13:15:19;;;;;;;3.05;2.40;;;;;;;10.85;63.58;98670.28;10498483;28;20056;-72
2021/11/03 13:20:33;;;;;;;7.05;2.63;;;;;;;10.88;64.25;98666.63;10502898;28;20052;-73
2021/11/03 13:25:45;;;;;;;2.83;2.00;;;;;;;10.83;64.60;98666.03;10506208;28;20058;-72
2021/11/03 13:30:56;;;;;;;3.40;2.10;;;;;;;10.83;64.32;98680.03;10507252;28;20041;-73
2021/11/03 13:36:06;;;;;;;2.28;2.00;;;;;;;10.66;65.45;98677.44;10505778;28;20041;-73
2021/11/03 13:41:24;;;;;;;4.63;2.15;;;;;;;10.79;64.41;98688.16;10505562;28;20380;-72
2021/11/03 13:46:27;;;;;;;2.55;1.83;;;;;;;10.82;65.28;98685.38;10505550;28;20101;-73
2021/11/03 13:51:38;;;;;;;2.65;2.20;;;;;;;10.98;63.68;98675.72;10504037;28;20565;-73
2021/11/03 13:56:53;;;;;;;2.58;1.88;;;;;;;11.05;64.14;98684.94;10506524;28;20050;-72
2021/11/03 14:02:19;;;;;;;2.43;2.20;;;;;;;10.98;64.27;98675.72;10505039;28;20055;-72
2021/11/03 14:07:27;;;;;;;2.70;2.40;;;;;;;11.07;64.38;98683.09;10505958;28;20124;-74
2021/11/03 14:12:30;;;;;;;2.00;1.90;;;;;;;10.99;65.01;98650.28;10505829;28;20473;-72
2021/11/03 14:17:37;;;;;;;2.38;2.17;;;;;;;11.09;64.30;98657.56;10504321;28;20094;-72
2021/11/03 14:22:44;;;;;;;2.45;2.00;;;;;;;10.73;65.03;98670.94;10504562;28;20476;-73
2021/11/03 14:27:45;;;;;;;2.78;2.00;;;;;;;10.59;65.03;98662.97;10504265;28;20082;-72
2021/11/03 14:32:49;;;;;;;2.03;1.40;;;;;;;10.71;64.44;98650.91;10503522;28;20052;-72
2021/11/03 14:37:52;;;;;;;2.30;1.60;;;;;;;10.69;64.60;98666.78;10503990;28;20041;-72
2021/11/03 14:42:56;;;;;;;1.50;1.40;;;;;;;10.57;65.12;98662.19;10503008;28;20115;-72
2021/11/03 14:47:57;;;;;;;1.75;1.20;;;;;;;10.35;65.77;98662.47;10503495;28;20524;-72
2021/11/03 14:53:03;;;;;;;3.53;3.00;;;;;;;10.28;66.45;98666.38;10485143;28;20044;-72
2021/11/03 14:58:05;;;;;;;2.88;2.13;;;;;;;10.21;66.93;98678.06;10502822;28;20162;-72
2021/11/03 15:03:16;;;;;;;2.15;1.20;;;;;;;10.17;67.40;98663.41;10502511;28;20102;-72
2021/11/03 15:08:34;;;;;;;7.05;2.13;;;;;;;10.21;67.32;98659.69;10502288;28;20064;-73
2021/11/03 15:13:38;;;;;;;4.00;1.90;;;;;;;10.14;67.59;98666.19;10502475;28;20402;-73
2021/11/03 15:18:41;;;;;;;5.05;1.63;;;;;;;10.11;68.46;98648.81;10501156;28;20040;-74
2021/11/03 15:23:42;;;;;;;1.58;1.42;;;;;;;10.01;68.12;98640.59;10501540;28;20048;-74
2021/11/03 15:28:45;;;;;;;1.65;1.40;;;;;;;9.93;69.07;98645.38;10501817;28;20059;-72
2021/11/03 15:33:48;;;;;;;1.83;1.50;;;;;;;9.80;69.60;98632.03;10503121;28;20037;-73
2021/11/03 15:38:57;;;;;;;2.92;1.95;;;;;;;9.90;68.66;98649.91;10504729;28;20478;-72
2021/11/03 15:43:59;;;;;;;3.05;1.83;;;;;;;9.61;70.15;98639.13;10504271;28;20408;-72
2021/11/03 15:49:13;;;;;;;2.28;2.00;;;;;;;9.66;69.70;98637.13;10502735;28;20040;-73
2021/11/03 15:54:15;;;;;;;2.22;2.03;;;;;;;9.74;69.65;98640.22;10503762;28;20048;-71
2021/11/03 15:59:18;;;;;;;4.22;2.30;;;;;;;9.69;69.97;98623.81;10483311;28;20095;-75
2021/11/03 16:04:32;;;;;;;2.83;2.50;;;;;;;9.59;69.82;98609.50;10499585;28;20048;-72
2021/11/03 16:09:34;;;;;;;4.68;2.55;;;;;;;9.62;69.86;98622.47;10497547;28;20044;-73
2021/11/03 16:14:39;;;;;;;3.28;2.97;;;;;;;9.50;70.82;98623.91;10497115;28;20064;-75
2021/11/03 16:19:41;;;;;;;2.58;2.38;;;;;;;9.76;69.89;98624.38;10502696;28;20064;-73
2021/11/03 16:24:43;;;;;;;3.45;3.15;;;;;;;9.55;71.36;98637.66;10503582;28;20044;-72
2021/11/03 16:29:47;;;;;;;3.78;3.47;;;;;;;9.66;70.57;98637.13;10501182;28;20033;-72
2021/11/03 16:34:49;;;;;;;4.47;4.18;;;;;;;9.52;71.35;98642.22;10501034;28;20044;-74
2021/11/03 16:39:51;;;;;;;4.72;4.32;;;;;;;9.67;71.15;98645.84;10501637;28;20036;-74
2021/11/03 16:45:00;;;;;;;4.85;4.55;;;;;;;9.69;70.96;98642.19;10502076;28;20072;-73
2021/11/03 16:50:07;;;;;;;5.95;5.35;;;;;;;9.71;70.49;98656.09;10502957;28;20050;-72
2021/11/03 16:55:10;;;;;;;5.40;5.00;;;;;;;9.63;70.94;98657.41;10501472;28;20078;-72
2021/11/03 17:00:26;;;;;;;6.30;5.72;;;;;;;9.58;71.88;98658.50;10501591;28;20036;-73
2021/11/03 17:05:28;;;;;;;5.60;5.13;;;;;;;9.71;71.13;98642.13;10499627;28;20040;-74
2021/11/03 17:10:29;;;;;;;6.90;6.30;;;;;;;9.59;72.54;98640.97;10500760;28;20530;-74
2021/11/03 17:15:31;;;;;;;5.93;5.53;;;;;;;9.66;72.21;98645.00;10500889;28;20055;-74
2021/11/03 17:20:32;;;;;;;6.80;6.30;;;;;;;9.60;72.68;98646.13;10482170;28;20048;-73
2021/11/03 17:25:35;;;;;;;7.35;6.85;;;;;;;9.53;72.93;98633.41;10499689;28;20048;-74
2021/11/03 17:30:37;;;;;;;7.13;6.70;;;;;;;9.51;73.28;98627.38;10534896;28;20044;-74
2021/11/03 17:35:41;;;;;;;7.28;6.78;;;;;;;9.73;72.66;98629.78;10540712;28;20044;-74
2021/11/03 17:40:48;;;;;;;7.88;7.28;;;;;;;9.53;73.66;98626.41;10541878;28;20040;-74
2021/11/03 17:45:52;;;;;;;8.52;7.93;;;;;;;9.49;73.23;98624.84;10523586;28;20086;-74
2021/11/03 17:50:54;;;;;;;9.52;8.93;;;;;;;9.36;72.86;98623.75;10541078;28;20036;-75
2021/11/03 17:56:18;;;;;;;10.60;9.90;;;;;;;9.33;72.73;98631.75;10540572;28;20047;-73
2021/11/03 18:01:22;;;;;;;11.80;10.90;;;;;;;9.29;71.51;98624.97;10540389;28;20044;-73
2021/11/03 18:06:25;;;;;;;11.43;10.73;;;;;;;9.17;72.08;98630.84;10523767;28;20055;-72
2021/11/03 18:11:30;;;;;;;12.80;11.82;;;;;;;8.96;72.98;98619.59;10530826;28;20417;-75
2021/11/03 18:16:32;;;;;;;10.45;9.85;;;;;;;8.98;73.19;98615.97;10548469;28;20535;-74
2021/11/03 18:21:33;;;;;;;11.50;10.70;;;;;;;9.20;71.71;98620.19;10547745;28;20044;-74
2021/11/03 18:26:40;;;;;;;11.48;10.68;;;;;;;9.09;71.78;98626.78;10547937;28;20464;-73
2021/11/03 18:31:48;;;;;;;11.93;11.00;;;;;;;9.02;72.52;98628.00;10547400;28;20040;-73
2021/11/03 18:36:51;;;;;;;10.65;9.95;;;;;;;9.10;72.38;98633.72;10547376;28;20127;-73
2021/11/03 18:42:06;;;;;;;11.13;10.43;;;;;;;8.92;72.63;98637.22;10528653;28;20051;-74
2021/11/03 18:47:11;;;;;;;12.25;11.43;;;;;;;8.80;73.54;98643.88;10547199;28;20101;-73
2021/11/03 18:52:37;;;;;;;11.88;11.07;;;;;;;9.02;72.86;98645.50;10530068;28;20536;-74
2021/11/03 18:57:41;;;;;;;12.02;11.20;;;;;;;8.57;74.51;98651.97;10547837;28;20055;-74
2021/11/03 19:02:43;;;;;;;10.60;9.93;;;;;;;8.88;72.89;98648.78;10547360;28;20481;-74
2021/11/03 19:07:45;;;;;;;11.40;10.60;;;;;;;8.57;74.25;98658.06;10547171;28;20490;-73
2021/11/03 19:12:49;;;;;;;11.65;10.73;;;;;;;8.53;75.06;98659.09;10545965;28;20105;-74
2021/11/03 19:17:52;;;;;;;11.63;10.70;;;;;;;8.80;73.63;98664.84;10546354;28;20044;-73
2021/11/03 19:22:58;;;;;;;10.55;9.85;;;;;;;8.68;74.36;98662.81;10546328;28;20040;-73
2021/11/03 19:28:02;;;;;;;10.52;9.82;;;;;;;8.55;74.75;98665.16;10546411;28;20044;-74
2021/11/03 19:33:06;;;;;;;9.90;9.20;;;;;;;8.61;75.28;98666.63;10545753;28;20056;-75
2021/11/03 19:38:20;;;;;;;10.77;9.98;;;;;;;8.43;76.13;98657.00;10545150;28;20047;-74
2021/11/03 19:43:24;;;;;;;10.32;9.63;;;;;;;8.58;75.54;98643.19;10544164;28;20476;-74
2021/11/03 19:48:27;;;;;;;10.45;9.75;;;;;;;8.48;76.05;98634.06;10534905;28;20040;-74
2021/11/03 19:53:38;;;;;;;10.05;9.40;;;;;;;8.58;75.96;98635.31;10501808;28;20067;-74
2021/11/03 19:58:40;;;;;;;11.25;10.35;;;;;;;8.57;76.03;98626.63;10482576;28;20040;-73
2021/11/03 20:03:42;;;;;;;10.73;10.02;;;;;;;8.69;75.54;98606.88;10502561;28;20045;-74
2021/11/03 20:08:45;;;;;;;10.32;9.63;;;;;;;8.80;75.21;98604.59;10501671;28;20071;-73
2021/11/03 20:13:57;;;;;;;11.02;10.23;;;;;;;8.67;75.53;98597.38;10501767;28;20132;-74
2021/11/03 20:19:13;;;;;;;10.90;10.20;;;;;;;8.64;75.93;98584.44;10502573;28;20037;-74
2021/11/03 20:24:22;;;;;;;11.07;10.27;;;;;;;8.45;76.98;98601.00;10499964;28;20056;-74
2021/11/03 20:29:24;;;;;;;11.15;10.35;;;;;;;8.59;76.19;98606.47;10499551;28;20037;-73
2021/11/03 20:34:34;;;;;;;11.73;10.93;;;;;;;8.43;77.18;98609.84;10500989;28;20075;-74
2021/11/03 20:39:37;;;;;;;11.43;10.73;;;;;;;8.13;78.61;98610.28;10502284;28;20041;-74
2021/11/03 20:44:39;;;;;;;11.27;10.57;;;;;;;8.06;79.28;98612.34;10501532;28;20048;-74
2021/11/03 20:49:41;;;;;;;10.68;9.98;;;;;;;7.97;80.08;98617.09;10501595;28;20045;-73
2021/11/03 20:54:42;;;;;;;12.30;11.50;;;;;;;7.84;81.06;98622.88;10500344;28;20517;-73
2021/11/03 20:59:44;;;;;;;11.60;10.80;;;;;;;7.81;81.22;98630.84;10499313;28;20055;-74
2021/11/03 21:04:45;;;;;;;11.52;10.73;;;;;;;8.10;81.96;98641.81;10498903;28;20098;-73
2021/11/03 21:09:47;;;;;;;10.32;9.63;;;;;;;8.04;81.94;98634.25;10498756;28;20052;-74
2021/11/03 21:14:49;;;;;;;11.65;10.85;;;;;;;8.18;82.28;98644.09;10481178;28;20410;-74
2021/11/03 21:19:50;;;;;;;10.48;9.75;;;;;;;7.99;81.71;98631.81;10499133;28;20044;-73
2021/11/03 21:24:55;;;;;;;12.40;11.50;;;;;;;7.91;82.82;98633.91;10499382;28;20079;-74
2021/11/03 21:29:57;;;;;;;13.68;12.60;;;;;;;8.38;80.42;98646.72;10481415;28;20075;-73
2021/11/03 21:34:59;;;;;;;13.40;12.50;;;;;;;7.93;82.58;98639.09;10498777;28;20052;-74
2021/11/03 21:40:00;;;;;;;13.48;12.57;;;;;;;7.78;83.97;98640.59;10483424;28;20041;-73
2021/11/03 21:45:04;;;;;;;13.93;13.02;;;;;;;7.95;82.81;98634.63;10506960;28;20490;-73
2021/11/03 21:50:06;;;;;;;13.65;12.65;;;;;;;7.72;84.30;98627.78;10507400;28;20041;-74
2021/11/03 21:55:08;;;;;;;13.50;12.60;;;;;;;7.57;85.02;98631.91;10506262;28;20093;-74
2021/11/03 22:00:15;;;;;;;14.60;13.60;;;;;;;7.80;84.21;98621.31;10506014;28;20048;-74
2021/11/03 22:05:17;;;;;;;14.70;13.68;;;;;;;7.90;83.03;98621.75;10506839;28;20044;-74
2021/11/03 22:10:19;;;;;;;15.27;14.20;;;;;;;7.86;83.16;98633.28;10505426;28;20402;-74
2021/11/03 22:15:22;;;;;;;13.73;12.82;;;;;;;7.62;84.23;98627.34;10504669;28;20041;-73
2021/11/03 22:20:29;;;;;;;15.35;14.35;;;;;;;7.77;84.16;98655.44;10487232;28;20383;-73
2021/11/03 22:25:30;;;;;;;13.75;12.85;;;;;;;7.60;85.16;98671.00;10504434;28;20048;-74
2021/11/03 22:30:32;;;;;;;13.80;12.90;;;;;;;7.55;85.51;98676.41;10504745;28;20048;-73
2021/11/03 22:35:34;;;;;;;14.30;13.35;;;;;;;7.88;85.35;98677.66;10504394;28;20067;-73
2021/11/03 22:40:35;;;;;;;14.52;13.40;;;;;;;7.84;84.24;98669.97;10504167;28;20128;-73
2021/11/03 22:45:42;;;;;;;16.67;15.52;;;;;;;7.57;85.77;98643.22;10504529;28;20052;-74
2021/11/03 22:50:44;;;;;;;17.23;16.02;;;;;;;7.58;85.95;98642.28;10503397;28;20087;-74
2021/11/03 22:55:46;;;;;;;15.10;14.10;;;;;;;7.66;85.38;98634.13;10503394;28;20075;-73
2021/11/03 23:00:50;;;;;;;15.57;14.57;;;;;;;7.63;85.61;98642.09;10503360;28;20098;-73
2021/11/03 23:05:53;;;;;;;15.48;14.48;;;;;;;7.79;83.81;98637.06;10503439;28;20391;-73
2021/11/03 23:10:55;;;;;;;15.82;14.73;;;;;;;7.55;85.69;98636.34;10504184;28;20044;-74
2021/11/03 23:15:56;;;;;;;16.95;15.88;;;;;;;7.45;86.66;98629.81;10503232;28;20048;-73
2021/11/03 23:20:58;;;;;;;18.00;16.80;;;;;;;7.45;87.30;98617.56;10502886;28;20045;-74
2021/11/03 23:25:59;;;;;;;19.52;18.30;;;;;;;7.31;88.90;98589.41;10504130;22;20061;-82
2021/11/03 23:31:02;;;;;;;19.10;17.80;;;;;;;7.47;87.61;98568.66;10445274;28;20445;-80
2021/11/03 23:36:03;;;;;;;18.92;17.73;;;;;;;7.62;86.65;98568.97;10449024;28;20045;-82
2021/11/03 23:41:05;;;;;;;17.60;16.30;;;;;;;7.73;85.83;98574.56;10452033;28;20046;-80